createdAt,value
2018-05-27T00:00:15.505Z,11.59
2018-05-27T00:01:15.982Z,11.58
2018-05-27T00:02:16.452Z,11.56
2018-05-27T00:03:16.927Z,11.54
2018-05-27T00:04:17.404Z,11.52
2018-05-27T00:05:17.876Z,11.50
2018-05-27T00:06:18.357Z,11.47
2018-05-27T00:07:18.826Z,11.45
2018-05-27T00:08:19.307Z,11.43
2018-05-27T00:09:19.782Z,11.40
2018-05-27T00:10:20.253Z,11.39
2018-05-27T00:11:20.781Z,11.36
2018-05-27T00:12:21.201Z,11.36
2018-05-27T00:13:21.676Z,11.34
2018-05-27T00:14:22.152Z,11.32
2018-05-27T00:15:22.626Z,11.30
2018-05-27T00:16:23.102Z,11.28
2018-05-27T00:17:23.576Z,11.25
2018-05-27T00:18:24.056Z,11.26
2018-05-27T00:19:24.525Z,11.24
2018-05-27T00:20:24.999Z,11.22
2018-05-27T00:21:25.524Z,11.22
2018-05-27T00:22:25.952Z,11.20
2018-05-27T00:23:26.423Z,11.18
2018-05-27T00:24:26.897Z,11.18
2018-05-27T00:25:27.367Z,11.16
2018-05-27T00:26:27.842Z,11.14
2018-05-27T00:27:28.313Z,11.13
2018-05-27T00:28:28.787Z,11.11
2018-05-27T00:29:29.261Z,11.10
2018-05-27T00:30:29.733Z,11.09
2018-05-27T00:31:30.205Z,11.07
2018-05-27T00:32:30.678Z,11.05
2018-05-27T00:33:31.149Z,11.04
2018-05-27T00:34:31.622Z,11.02
2018-05-27T00:35:32.093Z,10.99
2018-05-27T00:36:32.564Z,10.98
2018-05-27T00:37:33.036Z,10.95
2018-05-27T00:38:33.509Z,10.94
2018-05-27T00:39:33.979Z,10.94
2018-05-27T00:40:34.450Z,10.92
2018-05-27T00:41:34.923Z,10.90
2018-05-27T00:42:35.394Z,10.88
2018-05-27T00:43:35.863Z,10.88
2018-05-27T00:44:36.335Z,10.84
2018-05-27T00:45:36.808Z,10.83
2018-05-27T00:46:37.279Z,10.82
2018-05-27T00:47:37.747Z,10.81
2018-05-27T00:48:38.224Z,10.78
2018-05-27T00:49:38.690Z,10.77
2018-05-27T00:50:39.161Z,10.74
2018-05-27T00:51:39.682Z,10.70
2018-05-27T00:52:40.103Z,10.70
2018-05-27T00:53:40.575Z,10.68
2018-05-27T00:54:41.047Z,10.66
2018-05-27T00:55:41.518Z,10.65
2018-05-27T00:56:41.997Z,10.64
2018-05-27T00:57:42.461Z,10.63
2018-05-27T00:58:42.935Z,10.62
2018-05-27T00:59:43.406Z,10.58
2018-05-27T01:00:44.080Z,10.58
2018-05-27T01:01:44.401Z,10.58
2018-05-27T01:02:44.824Z,10.55
2018-05-27T01:03:45.295Z,10.54
2018-05-27T01:04:45.774Z,10.54
2018-05-27T01:05:46.248Z,10.52
2018-05-27T01:06:46.715Z,10.50
2018-05-27T01:07:47.192Z,10.49
2018-05-27T01:08:47.664Z,10.48
2018-05-27T01:09:48.136Z,10.47
2018-05-27T01:10:48.611Z,10.45
2018-05-27T01:11:49.082Z,10.44
2018-05-27T01:12:49.557Z,10.42
2018-05-27T01:13:50.033Z,10.42
2018-05-27T01:14:50.507Z,10.40
2018-05-27T01:15:50.980Z,10.40
2018-05-27T01:16:51.458Z,10.38
2018-05-27T01:17:51.932Z,10.37
2018-05-27T01:18:52.410Z,10.37
2018-05-27T01:19:52.882Z,10.36
2018-05-27T01:20:53.355Z,10.36
2018-05-27T01:21:53.853Z,10.32
2018-05-27T01:22:54.305Z,10.31
2018-05-27T01:23:54.780Z,10.31
2018-05-27T01:24:55.256Z,10.31
2018-05-27T01:25:55.730Z,10.30
2018-05-27T01:26:56.408Z,10.30
2018-05-27T01:27:56.679Z,10.26
2018-05-27T01:28:57.152Z,10.25
2018-05-27T01:29:57.626Z,10.23
2018-05-27T01:30:58.101Z,10.22
2018-05-27T01:31:58.575Z,10.25
2018-05-27T01:32:59.050Z,10.21
2018-05-27T01:33:59.522Z,10.22
2018-05-27T01:34:59.996Z,10.20
2018-05-27T01:36:00.469Z,10.19
2018-05-27T01:37:00.995Z,10.18
2018-05-27T01:38:01.416Z,10.17
2018-05-27T01:39:01.889Z,10.16
2018-05-27T01:40:02.361Z,10.15
2018-05-27T01:41:02.834Z,10.14
2018-05-27T01:42:03.357Z,10.14
2018-05-27T01:43:03.779Z,10.14
2018-05-27T01:44:04.249Z,10.12
2018-05-27T01:45:04.723Z,10.12
2018-05-27T01:46:05.197Z,10.12
2018-05-27T01:47:05.666Z,10.10
2018-05-27T01:48:06.161Z,10.09
2018-05-27T01:49:06.607Z,10.08
2018-05-27T01:50:07.080Z,10.07
2018-05-27T01:51:07.550Z,10.04
2018-05-27T01:52:08.071Z,10.05
2018-05-27T01:53:08.491Z,10.03
2018-05-27T01:54:08.970Z,10.02
2018-05-27T01:55:09.432Z,10.02
2018-05-27T01:56:09.903Z,10.00
2018-05-27T01:57:10.376Z,10.02
2018-05-27T01:58:10.845Z,10.00
2018-05-27T01:59:11.317Z,10.00
2018-05-27T02:00:11.788Z,9.99
2018-05-27T02:01:12.262Z,9.97
2018-05-27T02:02:12.732Z,9.96
2018-05-27T02:03:13.202Z,9.96
2018-05-27T02:04:13.674Z,9.95
2018-05-27T02:05:14.150Z,9.94
2018-05-27T02:06:14.819Z,9.94
2018-05-27T02:07:15.090Z,9.92
2018-05-27T02:08:15.564Z,9.92
2018-05-27T02:09:16.033Z,9.92
2018-05-27T02:10:16.503Z,9.91
2018-05-27T02:11:16.976Z,9.90
2018-05-27T02:12:17.449Z,9.90
2018-05-27T02:13:17.921Z,9.90
2018-05-27T02:14:18.395Z,9.91
2018-05-27T02:15:18.869Z,9.88
2018-05-27T02:16:19.342Z,9.88
2018-05-27T02:17:19.813Z,9.84
2018-05-27T02:18:20.488Z,9.84
2018-05-27T02:19:20.763Z,9.84
2018-05-27T02:20:21.235Z,9.80
2018-05-27T02:21:21.708Z,9.81
2018-05-27T02:22:22.183Z,9.82
2018-05-27T02:23:22.657Z,9.78
2018-05-27T02:24:23.132Z,9.79
2018-05-27T02:25:23.606Z,9.78
2018-05-27T02:26:24.080Z,9.78
2018-05-27T02:27:24.556Z,9.76
2018-05-27T02:28:25.037Z,9.76
2018-05-27T02:29:25.506Z,9.74
2018-05-27T02:30:25.981Z,9.74
2018-05-27T02:31:26.456Z,9.73
2018-05-27T02:32:26.981Z,9.74
2018-05-27T02:33:27.404Z,9.74
2018-05-27T02:34:27.881Z,9.73
2018-05-27T02:35:28.355Z,9.72
2018-05-27T02:36:28.829Z,9.71
2018-05-27T02:37:29.330Z,9.70
2018-05-27T02:38:29.776Z,9.68
2018-05-27T02:39:30.253Z,9.69
2018-05-27T02:40:30.726Z,9.68
2018-05-27T02:41:31.199Z,9.66
2018-05-27T02:42:31.674Z,9.66
2018-05-27T02:43:32.148Z,9.66
2018-05-27T02:44:32.622Z,9.64
2018-05-27T02:45:33.094Z,9.64
2018-05-27T02:46:33.569Z,9.64
2018-05-27T02:47:34.041Z,9.64
2018-05-27T02:48:34.511Z,9.62
2018-05-27T02:49:34.987Z,9.61
2018-05-27T02:50:35.457Z,9.60
2018-05-27T02:51:35.932Z,9.59
2018-05-27T02:52:36.402Z,9.60
2018-05-27T02:53:36.874Z,9.60
2018-05-27T02:54:37.346Z,9.59
2018-05-27T02:55:37.821Z,9.58
2018-05-27T02:56:38.293Z,9.55
2018-05-27T02:57:38.761Z,9.56
2018-05-27T02:58:39.233Z,9.55
2018-05-27T02:59:39.707Z,9.56
2018-05-27T03:00:40.175Z,9.54
2018-05-27T03:01:40.647Z,9.54
2018-05-27T03:02:41.119Z,9.53
2018-05-27T03:03:41.590Z,9.53
2018-05-27T03:04:42.058Z,9.51
2018-05-27T03:05:42.529Z,9.52
2018-05-27T03:06:43.003Z,9.50
2018-05-27T03:07:43.473Z,9.49
2018-05-27T03:08:43.945Z,9.48
2018-05-27T03:09:44.413Z,9.48
2018-05-27T03:10:44.886Z,9.45
2018-05-27T03:11:45.357Z,9.46
2018-05-27T03:12:45.827Z,9.46
2018-05-27T03:13:46.298Z,9.44
2018-05-27T03:14:46.773Z,9.42
2018-05-27T03:15:47.245Z,9.42
2018-05-27T03:16:47.713Z,9.41
2018-05-27T03:17:48.238Z,9.40
2018-05-27T03:18:48.659Z,9.40
2018-05-27T03:19:49.132Z,9.38
2018-05-27T03:20:49.601Z,9.37
2018-05-27T03:21:50.077Z,9.37
2018-05-27T03:22:50.598Z,9.36
2018-05-27T03:23:51.021Z,9.34
2018-05-27T03:24:51.493Z,9.34
2018-05-27T03:25:51.966Z,9.32
2018-05-27T03:26:52.440Z,9.32
2018-05-27T03:27:52.965Z,9.30
2018-05-27T03:28:53.391Z,9.30
2018-05-27T03:29:53.865Z,9.30
2018-05-27T03:30:54.337Z,9.28
2018-05-27T03:31:54.809Z,9.28
2018-05-27T03:32:55.282Z,9.27
2018-05-27T03:33:55.758Z,9.26
2018-05-27T03:34:56.230Z,9.24
2018-05-27T03:35:56.707Z,9.24
2018-05-27T03:36:57.181Z,9.24
2018-05-27T03:37:57.659Z,9.22
2018-05-27T03:38:58.131Z,9.22
2018-05-27T03:39:58.606Z,9.22
2018-05-27T03:40:59.079Z,9.20
2018-05-27T03:41:59.556Z,9.20
2018-05-27T03:43:00.031Z,9.20
2018-05-27T03:44:00.509Z,9.18
2018-05-27T03:45:00.979Z,9.18
2018-05-27T03:46:01.461Z,9.18
2018-05-27T03:47:01.928Z,9.18
2018-05-27T03:48:02.405Z,9.17
2018-05-27T03:49:02.880Z,9.16
2018-05-27T03:50:03.356Z,9.16
2018-05-27T03:51:03.831Z,9.16
2018-05-27T03:52:04.302Z,9.15
2018-05-27T03:53:04.776Z,9.14
2018-05-27T03:54:05.247Z,9.14
2018-05-27T03:55:05.720Z,9.13
2018-05-27T03:56:06.194Z,9.14
2018-05-27T03:57:06.667Z,9.13
2018-05-27T03:58:07.139Z,9.13
2018-05-27T03:59:07.613Z,9.14
2018-05-27T04:00:08.088Z,9.14
2018-05-27T04:01:08.562Z,9.14
2018-05-27T04:02:09.032Z,9.16
2018-05-27T04:03:09.502Z,9.16
2018-05-27T04:04:09.973Z,9.15
2018-05-27T04:05:10.445Z,9.16
2018-05-27T04:06:10.919Z,9.15
2018-05-27T04:07:11.390Z,9.16
2018-05-27T04:08:12.065Z,9.16
2018-05-27T04:09:12.332Z,9.17
2018-05-27T04:10:12.803Z,9.18
2018-05-27T04:11:13.280Z,9.18
2018-05-27T04:12:13.746Z,9.19
2018-05-27T04:13:14.215Z,9.19
2018-05-27T04:14:14.690Z,9.20
2018-05-27T04:15:15.160Z,9.21
2018-05-27T04:16:15.631Z,9.21
2018-05-27T04:17:16.103Z,9.22
2018-05-27T04:18:16.574Z,9.22
2018-05-27T04:19:17.049Z,9.23
2018-05-27T04:20:17.518Z,9.25
2018-05-27T04:21:17.991Z,9.26
2018-05-27T04:22:18.462Z,9.28
2018-05-27T04:23:18.933Z,9.28
2018-05-27T04:24:19.405Z,9.30
2018-05-27T04:25:19.877Z,9.30
2018-05-27T04:26:20.347Z,9.32
2018-05-27T04:27:20.820Z,9.34
2018-05-27T04:28:21.346Z,9.36
2018-05-27T04:29:21.766Z,9.38
2018-05-27T04:30:22.241Z,9.40
2018-05-27T04:31:22.712Z,9.41
2018-05-27T04:32:23.184Z,9.44
2018-05-27T04:33:23.659Z,9.45
2018-05-27T04:34:24.132Z,9.46
2018-05-27T04:35:24.607Z,9.50
2018-05-27T04:36:25.079Z,9.52
2018-05-27T04:37:25.554Z,9.52
2018-05-27T04:38:26.030Z,9.55
2018-05-27T04:39:26.506Z,9.58
2018-05-27T04:40:26.980Z,9.60
2018-05-27T04:41:27.453Z,9.59
2018-05-27T04:42:27.928Z,9.61
2018-05-27T04:43:28.606Z,9.62
2018-05-27T04:44:28.878Z,9.65
2018-05-27T04:45:29.359Z,9.66
2018-05-27T04:46:29.828Z,9.67
2018-05-27T04:47:30.304Z,9.68
2018-05-27T04:48:30.830Z,9.70
2018-05-27T04:49:31.254Z,9.74
2018-05-27T04:50:31.729Z,9.75
2018-05-27T04:51:32.206Z,9.76
2018-05-27T04:52:32.687Z,9.78
2018-05-27T04:53:33.155Z,9.80
2018-05-27T04:54:33.833Z,9.82
2018-05-27T04:55:34.105Z,9.82
2018-05-27T04:56:34.581Z,9.85
2018-05-27T04:57:35.054Z,9.85
2018-05-27T04:59:36.003Z,9.88
2018-05-27T05:00:36.479Z,9.90
2018-05-27T05:01:36.950Z,9.90
2018-05-27T05:02:37.424Z,9.92
2018-05-27T05:03:37.948Z,9.93
2018-05-27T05:04:38.378Z,9.94
2018-05-27T05:05:38.846Z,9.96
2018-05-27T05:06:39.317Z,9.98
2018-05-27T05:07:39.792Z,9.98
2018-05-27T05:08:40.269Z,10.00
2018-05-27T05:09:40.736Z,10.02
2018-05-27T05:10:41.210Z,10.04
2018-05-27T05:11:41.709Z,10.05
2018-05-27T05:12:42.155Z,10.08
2018-05-27T05:13:42.626Z,10.08
2018-05-27T05:14:43.098Z,10.10
2018-05-27T05:15:43.572Z,10.12
2018-05-27T05:16:44.043Z,10.13
2018-05-27T05:17:44.514Z,10.14
2018-05-27T05:18:44.985Z,10.15
2018-05-27T05:19:45.461Z,10.18
2018-05-27T05:20:45.929Z,10.18
2018-05-27T05:21:46.400Z,10.20
2018-05-27T05:22:46.870Z,10.20
2018-05-27T05:23:47.343Z,10.22
2018-05-27T05:24:47.816Z,10.24
2018-05-27T05:25:48.287Z,10.24
2018-05-27T05:26:48.758Z,10.26
2018-05-27T05:27:49.231Z,10.28
2018-05-27T05:28:49.753Z,10.28
2018-05-27T05:29:50.173Z,10.28
2018-05-27T05:30:50.645Z,10.30
2018-05-27T05:31:51.117Z,10.34
2018-05-27T05:32:51.591Z,10.33
2018-05-27T05:33:52.113Z,10.34
2018-05-27T05:34:52.534Z,10.37
2018-05-27T05:35:53.009Z,10.38
2018-05-27T05:36:53.481Z,10.40
2018-05-27T05:37:53.951Z,10.43
2018-05-27T05:38:54.424Z,10.44
2018-05-27T05:39:54.900Z,10.46
2018-05-27T05:40:55.374Z,10.48
2018-05-27T05:41:55.845Z,10.50
2018-05-27T05:42:56.321Z,10.54
2018-05-27T05:43:56.845Z,10.56
2018-05-27T05:44:57.268Z,10.59
2018-05-27T05:45:57.743Z,10.60
2018-05-27T05:46:58.216Z,10.62
2018-05-27T05:47:58.692Z,10.65
2018-05-27T05:48:59.170Z,10.67
2018-05-27T05:49:59.643Z,10.70
2018-05-27T05:51:00.118Z,10.72
2018-05-27T05:52:00.596Z,10.74
2018-05-27T05:53:01.070Z,10.76
2018-05-27T05:54:01.546Z,10.78
2018-05-27T05:55:02.027Z,10.80
2018-05-27T05:56:02.498Z,10.82
2018-05-27T05:57:02.973Z,10.84
2018-05-27T05:58:03.454Z,10.85
2018-05-27T05:59:03.921Z,10.88
2018-05-27T06:00:04.397Z,10.89
2018-05-27T06:01:04.875Z,10.91
2018-05-27T06:02:05.348Z,10.92
2018-05-27T06:03:05.827Z,10.94
2018-05-27T06:04:06.298Z,10.97
2018-05-27T06:05:06.778Z,10.98
2018-05-27T06:06:07.248Z,11.00
2018-05-27T06:07:07.723Z,11.00
2018-05-27T06:08:08.198Z,11.03
2018-05-27T06:09:08.723Z,11.04
2018-05-27T06:10:09.147Z,11.06
2018-05-27T06:11:09.623Z,11.07
2018-05-27T06:12:10.096Z,11.09
2018-05-27T06:13:10.569Z,11.10
2018-05-27T06:14:11.096Z,11.11
2018-05-27T06:15:11.521Z,11.13
2018-05-27T06:16:11.991Z,11.14
2018-05-27T06:17:12.464Z,11.16
2018-05-27T06:18:12.934Z,11.18
2018-05-27T06:19:13.409Z,11.18
2018-05-27T06:20:13.885Z,11.20
2018-05-27T06:21:14.357Z,11.21
2018-05-27T06:22:14.828Z,11.19
2018-05-27T06:23:15.301Z,11.22
2018-05-27T06:24:15.777Z,11.24
2018-05-27T06:25:16.245Z,11.24
2018-05-27T06:26:16.719Z,11.25
2018-05-27T06:27:17.188Z,11.26
2018-05-27T06:28:17.662Z,11.27
2018-05-27T06:29:18.132Z,11.28
2018-05-27T06:30:18.603Z,11.28
2018-05-27T06:32:19.545Z,11.30
2018-05-27T06:33:20.019Z,11.32
2018-05-27T06:34:20.540Z,11.34
2018-05-27T06:35:20.961Z,11.33
2018-05-27T06:36:21.435Z,11.35
2018-05-27T06:37:21.906Z,11.35
2018-05-27T06:38:22.376Z,11.36
2018-05-27T06:39:22.899Z,11.36
2018-05-27T06:40:23.322Z,11.37
2018-05-27T06:41:23.797Z,11.38
2018-05-27T06:42:24.269Z,11.40
2018-05-27T06:43:24.737Z,11.40
2018-05-27T06:44:25.343Z,11.41
2018-05-27T06:45:25.689Z,11.41
2018-05-27T06:46:26.156Z,11.42
2018-05-27T06:47:26.627Z,11.43
2018-05-27T06:48:27.103Z,11.43
2018-05-27T06:49:27.575Z,11.44
2018-05-27T06:50:28.048Z,11.46
2018-05-27T06:51:28.523Z,11.46
2018-05-27T06:52:28.995Z,11.46
2018-05-27T06:53:29.470Z,11.49
2018-05-27T06:54:29.942Z,11.48
2018-05-27T06:55:30.417Z,11.48
2018-05-27T06:56:30.894Z,11.50
2018-05-27T06:57:31.368Z,11.50
2018-05-27T06:58:31.842Z,11.51
2018-05-27T06:59:32.318Z,11.53
2018-05-27T07:00:32.792Z,11.54
2018-05-27T07:01:33.268Z,11.56
2018-05-27T07:02:33.746Z,11.56
2018-05-27T07:03:34.220Z,11.56
2018-05-27T07:04:34.757Z,11.58
2018-05-27T07:05:35.176Z,11.59
2018-05-27T07:06:35.646Z,11.60
2018-05-27T07:07:36.125Z,11.60
2018-05-27T07:08:36.598Z,11.63
2018-05-27T07:09:37.072Z,11.64
2018-05-27T07:10:37.548Z,11.65
2018-05-27T07:11:38.028Z,11.66
2018-05-27T07:12:38.500Z,11.67
2018-05-27T07:13:38.973Z,11.70
2018-05-27T07:14:39.450Z,11.70
2018-05-27T07:15:39.923Z,11.72
2018-05-27T07:16:40.408Z,11.74
2018-05-27T07:17:40.872Z,11.76
2018-05-27T07:18:41.346Z,11.76
2018-05-27T07:19:41.822Z,11.79
2018-05-27T07:20:42.298Z,11.81
2018-05-27T07:21:42.775Z,11.83
2018-05-27T07:22:43.246Z,11.84
2018-05-27T07:23:43.721Z,11.86
2018-05-27T07:24:44.194Z,11.89
2018-05-27T07:25:44.666Z,11.90
2018-05-27T07:26:45.141Z,11.94
2018-05-27T07:27:45.614Z,11.96
2018-05-27T07:28:46.100Z,11.98
2018-05-27T07:29:46.565Z,12.00
2018-05-27T07:30:47.035Z,12.03
2018-05-27T07:31:47.508Z,12.05
2018-05-27T07:32:47.978Z,12.08
2018-05-27T07:33:48.453Z,12.10
2018-05-27T07:34:48.975Z,12.13
2018-05-27T07:35:49.402Z,12.15
2018-05-27T07:36:49.870Z,12.17
2018-05-27T07:37:50.342Z,12.20
2018-05-27T07:38:50.816Z,12.22
2018-05-27T07:39:51.287Z,12.24
2018-05-27T07:40:51.757Z,12.28
2018-05-27T07:41:52.233Z,12.30
2018-05-27T07:42:52.705Z,12.34
2018-05-27T07:43:53.173Z,12.36
2018-05-27T07:44:53.696Z,12.39
2018-05-27T07:45:54.116Z,12.42
2018-05-27T07:46:54.590Z,12.45
2018-05-27T07:47:55.063Z,12.47
2018-05-27T07:48:55.532Z,12.50
2018-05-27T07:49:56.004Z,12.52
2018-05-27T07:50:56.478Z,12.54
2018-05-27T07:51:56.949Z,12.60
2018-05-27T07:52:57.424Z,12.62
2018-05-27T07:53:57.895Z,12.66
2018-05-27T07:54:58.365Z,12.68
2018-05-27T07:55:58.839Z,12.70
2018-05-27T07:56:59.539Z,12.73
2018-05-27T07:57:59.785Z,12.75
2018-05-27T07:59:00.258Z,12.78
2018-05-27T08:00:00.936Z,12.82
2018-05-27T08:01:01.206Z,12.85
2018-05-27T08:02:01.681Z,12.88
2018-05-27T08:03:02.155Z,12.90
2018-05-27T08:04:02.629Z,12.94
2018-05-27T08:05:03.102Z,12.96
2018-05-27T08:06:03.584Z,13.00
2018-05-27T08:07:04.095Z,13.02
2018-05-27T08:08:04.528Z,13.05
2018-05-27T08:09:05.002Z,13.08
2018-05-27T08:10:05.479Z,13.10
2018-05-27T08:11:05.954Z,13.14
2018-05-27T08:12:06.429Z,13.17
2018-05-27T08:13:06.909Z,13.19
2018-05-27T08:14:07.382Z,13.23
2018-05-27T08:15:07.857Z,13.26
2018-05-27T08:16:08.334Z,13.28
2018-05-27T08:17:08.811Z,13.32
2018-05-27T08:18:09.287Z,13.34
2018-05-27T08:19:09.765Z,13.38
2018-05-27T08:20:10.293Z,13.42
2018-05-27T08:21:10.714Z,13.43
2018-05-27T08:22:11.190Z,13.47
2018-05-27T08:23:11.666Z,13.50
2018-05-27T08:24:12.142Z,13.53
2018-05-27T08:25:12.618Z,13.56
2018-05-27T08:26:13.095Z,13.60
2018-05-27T08:27:13.569Z,13.64
2018-05-27T08:28:14.044Z,13.66
2018-05-27T08:29:14.521Z,13.70
2018-05-27T08:30:15.001Z,13.72
2018-05-27T08:31:15.470Z,13.76
2018-05-27T08:32:15.945Z,13.78
2018-05-27T08:33:16.421Z,13.84
2018-05-27T08:34:16.894Z,13.87
2018-05-27T08:35:17.368Z,13.89
2018-05-27T08:36:17.843Z,13.94
2018-05-27T08:37:18.319Z,13.98
2018-05-27T08:38:18.798Z,14.00
2018-05-27T08:39:19.266Z,14.07
2018-05-27T08:40:19.740Z,14.10
2018-05-27T08:41:20.215Z,14.14
2018-05-27T08:42:20.691Z,14.17
2018-05-27T08:43:21.165Z,14.22
2018-05-27T08:44:21.638Z,14.26
2018-05-27T08:45:22.163Z,14.32
2018-05-27T08:46:22.586Z,14.37
2018-05-27T08:47:23.058Z,14.40
2018-05-27T08:48:23.532Z,14.46
2018-05-27T08:49:24.005Z,14.50
2018-05-27T08:50:24.479Z,14.54
2018-05-27T08:51:24.954Z,14.59
2018-05-27T08:52:25.423Z,14.64
2018-05-27T08:53:25.957Z,14.69
2018-05-27T08:54:26.376Z,14.72
2018-05-27T08:55:26.843Z,14.76
2018-05-27T08:56:27.314Z,14.80
2018-05-27T08:57:27.788Z,14.86
2018-05-27T08:58:28.259Z,14.88
2018-05-27T08:59:28.731Z,14.94
2018-05-27T09:00:29.205Z,14.98
2018-05-27T09:01:29.708Z,15.00
2018-05-27T09:02:30.149Z,15.06
2018-05-27T09:03:30.621Z,15.10
2018-05-27T09:04:31.093Z,15.13
2018-05-27T09:05:31.616Z,15.16
2018-05-27T09:06:32.040Z,15.21
2018-05-27T09:07:32.510Z,15.24
2018-05-27T09:08:32.981Z,15.27
2018-05-27T09:09:33.455Z,15.30
2018-05-27T09:10:33.929Z,15.34
2018-05-27T09:11:34.399Z,15.36
2018-05-27T09:12:34.872Z,15.40
2018-05-27T09:13:35.346Z,15.42
2018-05-27T09:14:35.817Z,15.46
2018-05-27T09:15:36.339Z,15.48
2018-05-27T09:16:36.762Z,15.51
2018-05-27T09:17:37.235Z,15.54
2018-05-27T09:18:37.710Z,15.58
2018-05-27T09:19:38.182Z,15.60
2018-05-27T09:20:38.653Z,15.64
2018-05-27T09:21:39.128Z,15.66
2018-05-27T09:22:39.606Z,15.69
2018-05-27T09:23:40.076Z,15.73
2018-05-27T09:24:40.551Z,15.75
2018-05-27T09:25:41.026Z,15.78
2018-05-27T09:26:41.509Z,15.81
2018-05-27T09:27:41.975Z,15.85
2018-05-27T09:28:42.458Z,15.88
2018-05-27T09:29:42.926Z,15.93
2018-05-27T09:30:43.406Z,15.95
2018-05-27T09:31:43.881Z,15.98
2018-05-27T09:32:44.356Z,16.02
2018-05-27T09:33:44.835Z,16.06
2018-05-27T09:34:45.310Z,16.08
2018-05-27T09:35:45.786Z,16.12
2018-05-27T09:36:46.262Z,16.16
2018-05-27T09:37:46.740Z,16.20
2018-05-27T09:38:47.213Z,16.24
2018-05-27T09:39:47.693Z,16.29
2018-05-27T09:40:48.169Z,16.32
2018-05-27T09:41:48.647Z,16.38
2018-05-27T09:42:49.122Z,16.42
2018-05-27T09:43:49.600Z,16.47
2018-05-27T09:44:50.075Z,16.50
2018-05-27T09:45:50.553Z,16.56
2018-05-27T09:46:51.029Z,16.61
2018-05-27T09:47:51.507Z,16.66
2018-05-27T09:48:51.980Z,16.70
2018-05-27T09:49:52.459Z,16.76
2018-05-27T09:50:52.935Z,16.80
2018-05-27T09:51:53.411Z,16.86
2018-05-27T09:52:53.892Z,16.92
2018-05-27T09:53:54.364Z,16.96
2018-05-27T09:54:54.841Z,17.01
2018-05-27T09:55:55.318Z,17.06
2018-05-27T09:56:55.793Z,17.11
2018-05-27T09:57:56.341Z,17.15
2018-05-27T09:58:56.744Z,17.21
2018-05-27T09:59:57.261Z,17.26
2018-05-27T10:00:57.697Z,17.30
2018-05-27T10:01:58.175Z,17.34
2018-05-27T10:02:58.650Z,17.38
2018-05-27T10:03:59.124Z,17.40
2018-05-27T10:04:59.600Z,17.44
2018-05-27T10:06:00.124Z,17.46
2018-05-27T10:07:00.552Z,17.49
2018-05-27T10:08:01.025Z,17.51
2018-05-27T10:09:01.500Z,17.55
2018-05-27T10:10:01.974Z,17.56
2018-05-27T10:11:02.449Z,17.58
2018-05-27T10:12:02.931Z,17.60
2018-05-27T10:13:03.399Z,17.61
2018-05-27T10:14:03.877Z,17.62
2018-05-27T10:15:04.348Z,17.62
2018-05-27T10:16:04.823Z,17.63
2018-05-27T10:17:05.297Z,17.65
2018-05-27T10:18:05.777Z,17.64
2018-05-27T10:19:06.250Z,17.66
2018-05-27T10:20:06.728Z,17.65
2018-05-27T10:21:07.192Z,17.66
2018-05-27T10:22:07.667Z,17.66
2018-05-27T10:23:08.143Z,17.66
2018-05-27T10:24:08.617Z,17.66
2018-05-27T10:25:09.088Z,17.66
2018-05-27T10:26:09.589Z,17.68
2018-05-27T10:27:10.037Z,17.67
2018-05-27T10:28:10.509Z,17.68
2018-05-27T10:29:10.986Z,17.67
2018-05-27T10:30:11.457Z,17.67
2018-05-27T10:31:11.980Z,17.66
2018-05-27T10:32:12.402Z,17.66
2018-05-27T10:33:12.876Z,17.66
2018-05-27T10:34:13.552Z,17.65
2018-05-27T10:35:13.822Z,17.65
2018-05-27T10:36:14.348Z,17.64
2018-05-27T10:37:14.771Z,17.65
2018-05-27T10:38:15.242Z,17.65
2018-05-27T10:39:15.786Z,17.65
2018-05-27T10:40:16.187Z,17.64
2018-05-27T10:41:16.659Z,17.64
2018-05-27T10:42:17.132Z,17.65
2018-05-27T10:43:17.605Z,17.66
2018-05-27T10:44:18.081Z,17.64
2018-05-27T10:45:18.552Z,17.65
2018-05-27T10:46:19.023Z,17.64
2018-05-27T10:47:19.697Z,17.64
2018-05-27T10:48:19.967Z,17.64
2018-05-27T10:49:20.440Z,17.65
2018-05-27T10:50:20.913Z,17.65
2018-05-27T10:51:21.587Z,17.64
2018-05-27T10:52:21.862Z,17.65
2018-05-27T10:53:22.328Z,17.65
2018-05-27T10:54:22.804Z,17.66
2018-05-27T10:55:23.278Z,17.67
2018-05-27T10:56:23.746Z,17.68
2018-05-27T10:57:24.218Z,17.68
2018-05-27T10:58:24.690Z,17.68
2018-05-27T10:59:25.165Z,17.70
2018-05-27T11:00:25.636Z,17.70
2018-05-27T11:01:26.113Z,17.70
2018-05-27T11:02:26.586Z,17.72
2018-05-27T11:03:27.051Z,17.74
2018-05-27T11:04:27.521Z,17.74
2018-05-27T11:05:27.995Z,17.75
2018-05-27T11:06:28.470Z,17.77
2018-05-27T11:07:28.940Z,17.78
2018-05-27T11:08:29.411Z,17.80
2018-05-27T11:10:30.356Z,17.83
2018-05-27T11:11:30.831Z,17.84
2018-05-27T11:12:31.306Z,17.88
2018-05-27T11:13:31.775Z,17.90
2018-05-27T11:14:32.248Z,17.93
2018-05-27T11:15:32.726Z,17.95
2018-05-27T11:16:33.194Z,17.96
2018-05-27T11:17:33.668Z,18.00
2018-05-27T11:18:34.142Z,18.02
2018-05-27T11:19:34.619Z,18.06
2018-05-27T11:20:35.097Z,18.07
2018-05-27T11:21:35.620Z,18.10
2018-05-27T11:22:36.044Z,18.14
2018-05-27T11:23:36.520Z,18.15
2018-05-27T11:24:37.034Z,18.19
2018-05-27T11:25:37.469Z,18.20
2018-05-27T11:26:37.946Z,18.23
2018-05-27T11:27:38.423Z,18.25
2018-05-27T11:28:38.896Z,18.29
2018-05-27T11:29:39.379Z,18.31
2018-05-27T11:30:39.850Z,18.33
2018-05-27T11:31:40.327Z,18.36
2018-05-27T11:32:40.803Z,18.39
2018-05-27T11:33:41.283Z,18.41
2018-05-27T11:34:41.759Z,18.44
2018-05-27T11:35:42.239Z,18.46
2018-05-27T11:36:42.711Z,18.49
2018-05-27T11:37:43.189Z,18.50
2018-05-27T11:38:43.677Z,18.52
2018-05-27T11:39:44.150Z,18.53
2018-05-27T11:40:44.621Z,18.56
2018-05-27T11:41:45.102Z,18.57
2018-05-27T11:42:45.576Z,18.58
2018-05-27T11:43:46.055Z,18.60
2018-05-27T11:44:46.731Z,18.61
2018-05-27T11:45:47.006Z,18.64
2018-05-27T11:46:47.536Z,18.65
2018-05-27T11:47:47.960Z,18.66
2018-05-27T11:48:48.436Z,18.67
2018-05-27T11:49:48.914Z,18.67
2018-05-27T11:50:49.392Z,18.69
2018-05-27T11:51:49.866Z,18.70
2018-05-27T11:52:50.347Z,18.70
2018-05-27T11:53:50.819Z,18.68
2018-05-27T11:54:51.295Z,18.70
2018-05-27T11:55:51.774Z,18.70
2018-05-27T11:56:52.247Z,18.69
2018-05-27T11:57:52.725Z,18.72
2018-05-27T11:58:53.201Z,18.70
2018-05-27T11:59:53.677Z,18.71
2018-05-27T12:00:54.149Z,18.71
2018-05-27T12:01:54.630Z,18.70
2018-05-27T12:02:55.104Z,18.71
2018-05-27T12:03:55.578Z,18.70
2018-05-27T12:04:56.056Z,18.71
2018-05-27T12:05:56.529Z,18.70
2018-05-27T12:06:57.003Z,18.69
2018-05-27T12:07:57.480Z,18.69
2018-05-27T12:08:58.008Z,18.68
2018-05-27T12:09:58.428Z,18.68
2018-05-27T12:10:58.904Z,18.68
2018-05-27T12:11:59.382Z,18.66
2018-05-27T12:12:59.853Z,18.66
2018-05-27T12:14:00.331Z,18.66
2018-05-27T12:15:00.803Z,18.64
2018-05-27T12:16:01.281Z,18.64
2018-05-27T12:17:01.757Z,18.63
2018-05-27T12:18:02.227Z,18.62
2018-05-27T12:19:02.698Z,18.62
2018-05-27T12:20:03.176Z,18.60
2018-05-27T12:21:03.649Z,18.60
2018-05-27T12:22:04.123Z,18.58
2018-05-27T12:23:04.803Z,18.58
2018-05-27T12:24:05.076Z,18.56
2018-05-27T12:25:05.545Z,18.56
2018-05-27T12:26:06.021Z,18.55
2018-05-27T12:27:06.493Z,18.54
2018-05-27T12:28:06.966Z,18.54
2018-05-27T12:29:07.439Z,18.51
2018-05-27T12:30:07.913Z,18.50
2018-05-27T12:31:08.387Z,18.52
2018-05-27T12:32:08.860Z,18.50
2018-05-27T12:33:09.333Z,18.50
2018-05-27T12:34:09.813Z,18.49
2018-05-27T12:35:10.279Z,18.47
2018-05-27T12:36:10.753Z,18.46
2018-05-27T12:37:11.227Z,18.45
2018-05-27T12:38:11.701Z,18.44
2018-05-27T12:39:12.177Z,18.43
2018-05-27T12:40:12.649Z,18.41
2018-05-27T12:41:13.322Z,18.40
2018-05-27T12:42:13.591Z,18.38
2018-05-27T12:43:14.065Z,18.37
2018-05-27T12:44:14.537Z,18.36
2018-05-27T12:45:15.010Z,18.35
2018-05-27T12:46:15.484Z,18.33
2018-05-27T12:47:15.957Z,18.32
2018-05-27T12:48:16.433Z,18.31
2018-05-27T12:49:16.901Z,18.28
2018-05-27T12:50:17.375Z,18.27
2018-05-27T12:51:17.849Z,18.26
2018-05-27T12:52:18.320Z,18.24
2018-05-27T12:53:18.792Z,18.22
2018-05-27T12:54:19.467Z,18.20
2018-05-27T12:55:19.739Z,18.18
2018-05-27T12:56:20.210Z,18.17
2018-05-27T12:57:20.683Z,18.14
2018-05-27T12:58:21.155Z,18.12
2018-05-27T12:59:21.626Z,18.12
2018-05-27T13:00:22.102Z,18.10
2018-05-27T13:01:22.572Z,18.08
2018-05-27T13:02:23.093Z,18.07
2018-05-27T13:03:23.515Z,18.04
2018-05-27T13:04:23.988Z,18.02
2018-05-27T13:05:24.460Z,17.98
2018-05-27T13:06:24.933Z,17.96
2018-05-27T13:07:25.404Z,17.95